createdAt,value
2023-02-11T00:01:08.866Z,17.40
2023-02-11T00:03:37.128Z,18.27
2023-02-11T00:06:09.150Z,16.97
2023-02-11T00:08:39.209Z,14.27
2023-02-11T00:11:13.467Z,20.87
2023-02-11T00:13:41.564Z,19.90
2023-02-11T00:16:10.493Z,12.50
2023-02-11T00:18:38.679Z,19.60
2023-02-11T00:21:10.292Z,17.90
2023-02-11T00:23:39.813Z,18.97
2023-02-11T00:26:15.660Z,18.87
2023-02-11T00:28:44.026Z,18.83
2023-02-11T00:31:12.864Z,17.97
2023-02-11T00:33:40.932Z,17.10
2023-02-11T00:36:11.351Z,18.60
2023-02-11T00:38:40.723Z,17.53
2023-02-11T00:41:08.581Z,18.57
2023-02-11T00:43:36.764Z,20.50
2023-02-11T00:46:04.937Z,19.47
2023-02-11T00:48:33.194Z,16.30
2023-02-11T00:51:01.262Z,19.10
2023-02-11T00:53:29.256Z,17.90
2023-02-11T00:55:58.459Z,18.87
2023-02-11T00:58:26.422Z,19.23
2023-02-11T01:00:55.858Z,20.93
2023-02-11T01:03:23.839Z,17.57
2023-02-11T01:05:52.263Z,16.67
2023-02-11T01:08:20.496Z,14.77
2023-02-11T01:10:56.139Z,17.60
2023-02-11T01:13:25.849Z,13.57
2023-02-11T01:15:54.259Z,18.07
2023-02-11T01:18:22.326Z,16.77
2023-02-11T01:20:50.177Z,15.17
2023-02-11T01:23:18.087Z,18.13
2023-02-11T01:25:46.166Z,19.57
2023-02-11T01:28:18.361Z,16.23
2023-02-11T01:30:47.724Z,14.53
2023-02-11T01:33:15.804Z,21.50
2023-02-11T01:35:44.502Z,19.07
2023-02-11T01:38:17.377Z,17.53
2023-02-11T01:40:49.029Z,22.77
2023-02-11T01:43:17.030Z,19.93
2023-02-11T01:46:03.612Z,16.37
2023-02-11T01:48:34.976Z,16.87
2023-02-11T01:51:07.777Z,14.23
2023-02-11T01:53:55.452Z,15.30
2023-02-11T01:56:42.358Z,17.97
2023-02-11T01:59:16.032Z,16.40
2023-02-11T02:01:49.440Z,20.67
2023-02-11T02:04:20.095Z,15.13
2023-02-11T02:06:53.040Z,19.47
2023-02-11T02:09:24.591Z,18.90
2023-02-11T02:11:53.013Z,19.00
2023-02-11T02:14:21.101Z,22.00
2023-02-11T02:16:50.354Z,16.27
2023-02-11T02:19:56.690Z,20.00
2023-02-11T02:22:58.411Z,18.43
2023-02-11T02:26:16.122Z,17.10
2023-02-11T02:29:22.894Z,17.23
2023-02-11T02:32:40.190Z,13.97
2023-02-11T02:35:23.688Z,17.53
2023-02-11T02:37:58.275Z,18.27
2023-02-11T02:40:30.562Z,18.10
2023-02-11T02:42:59.986Z,18.70
2023-02-11T02:45:28.145Z,18.83
2023-02-11T02:47:56.035Z,17.93
2023-02-11T02:50:31.424Z,24.80
2023-02-11T02:53:13.264Z,21.33
2023-02-11T02:55:53.533Z,16.97
2023-02-11T02:58:47.157Z,16.53
2023-02-11T03:01:27.510Z,22.73
2023-02-11T03:04:06.590Z,17.83
2023-02-11T03:06:49.587Z,16.13
2023-02-11T03:09:22.459Z,16.23
2023-02-11T03:11:50.624Z,18.60
2023-02-11T03:14:20.992Z,20.93
2023-02-11T03:16:50.316Z,19.07
2023-02-11T03:19:22.367Z,18.70
2023-02-11T03:21:54.399Z,19.53
2023-02-11T03:24:26.935Z,19.33
2023-02-11T03:26:57.376Z,19.93
2023-02-11T03:29:34.792Z,18.87
2023-02-11T03:32:07.366Z,19.07
2023-02-11T03:34:41.688Z,19.07
2023-02-11T03:37:15.095Z,17.73
2023-02-11T03:39:48.637Z,24.50
2023-02-11T03:42:17.668Z,15.43
2023-02-11T03:44:50.893Z,20.47
2023-02-11T03:47:22.146Z,22.80
2023-02-11T03:49:52.916Z,22.60
2023-02-11T03:52:24.098Z,17.73
2023-02-11T03:54:56.798Z,17.30
2023-02-11T03:57:24.836Z,23.57
2023-02-11T03:59:55.231Z,18.20
2023-02-11T04:02:25.839Z,19.60
2023-02-11T04:04:53.770Z,17.90
2023-02-11T04:07:23.148Z,22.27
2023-02-11T04:09:51.104Z,20.63
2023-02-11T04:12:18.992Z,19.30
2023-02-11T04:14:46.926Z,21.57
2023-02-11T04:17:14.931Z,23.33
2023-02-11T04:19:42.898Z,18.97
2023-02-11T04:22:11.132Z,20.60
2023-02-11T04:24:40.660Z,19.23
2023-02-11T04:27:08.630Z,26.37
2023-02-11T04:29:36.670Z,21.10
2023-02-11T04:32:04.728Z,21.77
2023-02-11T04:34:33.115Z,22.30
2023-02-11T04:37:01.060Z,22.90
2023-02-11T04:39:29.006Z,24.90
2023-02-11T04:41:58.383Z,14.70
2023-02-11T04:44:26.303Z,17.93
2023-02-11T04:46:54.446Z,21.80
2023-02-11T04:49:22.423Z,20.43
2023-02-11T04:51:50.325Z,18.17
2023-02-11T04:54:18.949Z,24.30
2023-02-11T04:56:46.945Z,20.73
2023-02-11T04:59:16.612Z,20.60
2023-02-11T05:01:44.561Z,19.60
2023-02-11T05:04:12.436Z,23.00
2023-02-11T05:06:40.665Z,19.30
2023-02-11T05:09:08.775Z,19.30
2023-02-11T05:11:39.302Z,23.63
2023-02-11T05:14:07.804Z,17.03
2023-02-11T05:16:37.182Z,21.73
2023-02-11T05:19:05.082Z,20.13
2023-02-11T05:21:32.985Z,20.83
2023-02-11T05:24:00.887Z,18.47
2023-02-11T05:26:29.017Z,24.83
2023-02-11T05:28:57.385Z,22.33
2023-02-11T05:31:25.253Z,28.03
2023-02-11T05:33:54.501Z,18.13
2023-02-11T05:36:22.524Z,20.90
2023-02-11T05:38:50.913Z,21.50
2023-02-11T05:41:18.846Z,26.73
2023-02-11T05:43:48.713Z,24.63
2023-02-11T05:46:18.924Z,24.20
2023-02-11T05:48:46.843Z,23.10
2023-02-11T05:51:16.120Z,22.87
2023-02-11T05:53:44.020Z,24.00
2023-02-11T05:56:12.705Z,31.77
2023-02-11T05:58:40.557Z,24.27
2023-02-11T06:01:08.493Z,32.88
2023-02-11T06:03:36.541Z,28.47
2023-02-11T06:06:04.818Z,25.97
2023-02-11T06:08:34.083Z,27.53
2023-02-11T06:11:01.963Z,28.00
2023-02-11T06:13:29.924Z,31.07
2023-02-11T06:15:58.507Z,25.57
2023-02-11T06:18:26.681Z,25.63
2023-02-11T06:20:54.750Z,25.07
2023-02-11T06:23:23.033Z,26.33
2023-02-11T06:25:52.882Z,24.83
2023-02-11T06:28:21.295Z,24.30
2023-02-11T06:30:49.323Z,26.83
2023-02-11T06:33:17.231Z,29.50
2023-02-11T06:35:45.119Z,25.70
2023-02-11T06:38:13.004Z,25.63
2023-02-11T06:40:40.913Z,22.80
2023-02-11T06:43:10.105Z,24.43
2023-02-11T06:45:38.005Z,25.83
2023-02-11T06:48:06.187Z,24.30
2023-02-11T06:50:34.066Z,23.10
2023-02-11T06:53:02.111Z,25.70
2023-02-11T06:55:29.986Z,28.73
2023-02-11T06:57:57.884Z,24.40
2023-02-11T07:00:29.003Z,27.97
2023-02-11T07:02:57.143Z,29.60
2023-02-11T07:05:25.160Z,25.17
2023-02-11T07:07:53.052Z,28.87
2023-02-11T07:10:20.947Z,30.13
2023-02-11T07:12:48.809Z,28.33
2023-02-11T07:15:16.759Z,29.00
2023-02-11T07:17:46.014Z,27.80
2023-02-11T07:20:15.063Z,28.30
2023-02-11T07:22:42.957Z,31.47
2023-02-11T07:25:10.929Z,28.53
2023-02-11T07:27:38.848Z,31.17
2023-02-11T07:30:07.584Z,29.27
2023-02-11T07:32:35.491Z,27.37
2023-02-11T07:35:05.660Z,30.47
2023-02-11T07:37:35.077Z,26.73
2023-02-11T07:40:03.170Z,25.97
2023-02-11T07:42:31.051Z,25.20
2023-02-11T07:44:58.973Z,24.17
2023-02-11T07:47:26.964Z,28.63
2023-02-11T07:49:56.670Z,27.10
2023-02-11T07:52:26.135Z,27.17
2023-02-11T07:54:54.130Z,26.33
2023-02-11T07:57:21.989Z,29.67
2023-02-11T07:59:49.880Z,24.23
2023-02-11T08:02:17.869Z,27.97
2023-02-11T08:04:47.122Z,23.40
2023-02-11T08:07:16.800Z,22.20
2023-02-11T08:09:46.490Z,30.43
2023-02-11T08:12:14.397Z,22.43
2023-02-11T08:14:42.273Z,23.90
2023-02-11T08:17:10.161Z,29.20
2023-02-11T08:19:38.074Z,24.93
2023-02-11T08:22:06.008Z,27.67
2023-02-11T08:24:33.893Z,25.90
2023-02-11T08:27:03.161Z,24.17
2023-02-11T08:29:31.232Z,27.33
2023-02-11T08:31:59.189Z,30.77
2023-02-11T08:34:27.106Z,27.07
2023-02-11T08:36:55.078Z,28.83
2023-02-11T08:39:23.927Z,26.03
2023-02-11T08:41:53.878Z,27.13
2023-02-11T08:44:23.801Z,24.63
2023-02-11T08:46:52.462Z,31.07
2023-02-11T08:49:21.056Z,23.17
2023-02-11T08:51:49.135Z,27.53
2023-02-11T08:54:17.336Z,25.23
2023-02-11T08:56:45.609Z,25.00
2023-02-11T08:59:17.661Z,29.47
2023-02-11T09:01:47.687Z,25.07
2023-02-11T09:04:15.833Z,26.07
2023-02-11T09:06:43.738Z,32.03
2023-02-11T09:09:13.928Z,25.40
2023-02-11T09:11:43.686Z,27.97
2023-02-11T09:14:17.717Z,26.17
2023-02-11T09:16:47.174Z,25.17
2023-02-11T09:19:15.204Z,27.73
2023-02-11T09:21:43.094Z,28.00
2023-02-11T09:24:11.310Z,26.70
2023-02-11T09:26:39.646Z,26.83
2023-02-11T09:29:07.681Z,21.70
2023-02-11T09:31:36.108Z,25.60
2023-02-11T09:34:07.128Z,25.53
2023-02-11T09:36:38.304Z,29.00
2023-02-11T09:39:08.093Z,30.20
2023-02-11T09:42:04.336Z,30.40
2023-02-11T09:44:34.955Z,25.23
2023-02-11T09:47:05.810Z,21.57
2023-02-11T09:49:40.999Z,28.80
2023-02-11T09:52:16.469Z,23.87
2023-02-11T09:54:55.404Z,25.77
2023-02-11T09:57:28.997Z,26.47
2023-02-11T09:59:58.140Z,27.77
2023-02-11T10:02:32.421Z,21.47
2023-02-11T10:05:35.427Z,25.53
2023-02-11T10:08:17.045Z,24.00
2023-02-11T10:10:51.993Z,22.80
2023-02-11T10:13:34.584Z,23.73
2023-02-11T10:16:14.767Z,25.73
2023-02-11T10:18:57.873Z,28.03
2023-02-11T10:21:34.110Z,23.67
2023-02-11T10:24:10.356Z,22.93
2023-02-11T10:26:40.584Z,27.47
2023-02-11T10:29:19.418Z,19.90
2023-02-11T10:31:48.348Z,21.33
2023-02-11T10:34:16.611Z,23.10
2023-02-11T10:36:46.694Z,27.23
2023-02-11T10:39:17.686Z,23.43
2023-02-11T10:41:47.424Z,24.40
2023-02-11T10:44:25.163Z,26.73
2023-02-11T10:46:54.700Z,22.93
2023-02-11T10:49:40.026Z,24.80
2023-02-11T10:52:20.371Z,25.70
2023-02-11T10:55:00.345Z,23.30
2023-02-11T10:57:31.999Z,27.73
2023-02-11T11:00:03.514Z,20.90
2023-02-11T11:02:35.267Z,24.20
2023-02-11T11:05:05.283Z,20.13
2023-02-11T11:07:35.355Z,23.13
2023-02-11T11:10:06.556Z,22.10
2023-02-11T11:12:42.090Z,20.20
2023-02-11T11:15:21.607Z,23.77
2023-02-11T11:17:50.253Z,21.13
2023-02-11T11:20:23.936Z,22.53
2023-02-11T11:23:08.448Z,20.93
2023-02-11T11:25:40.380Z,20.87
2023-02-11T11:28:19.835Z,22.23
2023-02-11T11:30:47.967Z,16.77
2023-02-11T11:33:21.972Z,23.30
2023-02-11T11:36:01.675Z,18.47
2023-02-11T11:38:33.069Z,20.90
2023-02-11T11:41:19.183Z,18.07
2023-02-11T11:43:59.206Z,17.83
2023-02-11T11:46:29.908Z,19.23
2023-02-11T11:49:04.116Z,23.17
2023-02-11T11:51:33.709Z,16.27
2023-02-11T11:54:07.119Z,19.90
2023-02-11T11:56:37.220Z,20.77
2023-02-11T11:59:13.417Z,20.37
2023-02-11T12:01:51.707Z,19.70
2023-02-11T12:05:00.998Z,16.87
2023-02-11T12:07:43.684Z,16.67
2023-02-11T12:10:30.682Z,17.47
2023-02-11T12:13:07.045Z,20.27
2023-02-11T12:15:42.133Z,16.67
2023-02-11T12:18:26.882Z,14.00
2023-02-11T12:21:11.248Z,16.50
2023-02-11T12:23:51.121Z,18.87
2023-02-11T12:26:23.032Z,18.33
2023-02-11T12:29:05.428Z,16.30
2023-02-11T12:31:47.193Z,14.33
2023-02-11T12:34:40.751Z,16.77
2023-02-11T12:37:19.895Z,13.00
2023-02-11T12:39:52.283Z,14.13
2023-02-11T12:43:05.454Z,14.47
2023-02-11T12:45:44.318Z,12.03
2023-02-11T12:48:25.576Z,15.47
2023-02-11T12:50:59.293Z,11.80
2023-02-11T12:53:45.614Z,13.50
2023-02-11T12:56:18.571Z,12.83
2023-02-11T12:58:51.497Z,12.50
2023-02-11T13:01:23.921Z,9.53
2023-02-11T13:03:56.880Z,18.47
2023-02-11T13:06:30.330Z,13.17
2023-02-11T13:09:02.162Z,12.73
2023-02-11T13:11:36.318Z,15.27
2023-02-11T13:14:10.399Z,11.73
2023-02-11T13:16:42.165Z,12.20
2023-02-11T13:19:21.133Z,14.17
2023-02-11T13:21:57.743Z,11.37
2023-02-11T13:24:32.252Z,11.07
2023-02-11T13:27:09.406Z,9.23
2023-02-11T13:29:58.415Z,13.07
2023-02-11T13:32:26.460Z,11.53
2023-02-11T13:34:59.541Z,12.33
2023-02-11T13:37:32.809Z,11.67
2023-02-11T13:40:02.303Z,11.83
2023-02-11T13:42:32.221Z,8.73
2023-02-11T13:45:01.966Z,9.70
2023-02-11T13:47:33.374Z,9.10
2023-02-11T13:50:03.725Z,10.90
2023-02-11T13:52:34.856Z,11.40
2023-02-11T13:55:10.281Z,12.17
2023-02-11T13:57:40.668Z,9.13
2023-02-11T14:00:50.618Z,13.47
2023-02-11T14:03:52.812Z,11.43
2023-02-11T14:06:48.895Z,12.33
2023-02-11T14:09:39.118Z,10.90
2023-02-11T14:12:32.944Z,10.57
2023-02-11T14:15:06.722Z,8.10
2023-02-11T14:17:35.839Z,9.53
2023-02-11T14:20:26.440Z,11.53
2023-02-11T14:22:54.925Z,7.97
2023-02-11T14:25:25.347Z,11.17
2023-02-11T14:27:57.589Z,6.87
2023-02-11T14:30:46.957Z,9.23
2023-02-11T14:33:59.860Z,9.13
2023-02-11T14:37:00.301Z,4.77
2023-02-11T14:39:41.361Z,7.43
2023-02-11T14:42:18.942Z,7.73
2023-02-11T14:44:49.185Z,5.00
2023-02-11T14:47:20.564Z,7.50
2023-02-11T14:49:50.616Z,7.73
2023-02-11T14:52:28.844Z,8.33
2023-02-11T14:55:07.478Z,12.63
2023-02-11T14:57:35.468Z,27.87
2023-02-11T15:00:06.984Z,21.03
2023-02-11T15:02:37.470Z,6.57
2023-02-11T15:05:19.959Z,44.33
2023-02-11T15:07:52.507Z,9.23
2023-02-11T15:10:27.594Z,7.07
2023-02-11T15:12:55.945Z,10.97
2023-02-11T15:15:23.869Z,5.47
2023-02-11T15:17:52.013Z,7.63
2023-02-11T15:20:25.465Z,8.93
2023-02-11T15:22:58.475Z,7.47
2023-02-11T15:25:27.920Z,7.80
2023-02-11T15:27:57.636Z,5.20
2023-02-11T15:30:28.680Z,7.43
2023-02-11T15:32:59.920Z,7.77
2023-02-11T15:35:30.185Z,6.80
2023-02-11T15:38:00.502Z,8.43
2023-02-11T15:40:32.353Z,7.53
2023-02-11T15:43:02.640Z,8.23
2023-02-11T15:45:34.370Z,18.93
2023-02-11T15:48:10.616Z,6.87
2023-02-11T15:50:40.878Z,5.90
2023-02-11T15:53:23.005Z,9.73
2023-02-11T15:55:53.768Z,7.70
2023-02-11T15:58:22.854Z,6.30
2023-02-11T16:00:59.612Z,5.03
2023-02-11T16:03:32.647Z,4.90
2023-02-11T16:06:22.448Z,5.97
2023-02-11T16:09:03.278Z,21.40
2023-02-11T16:11:33.235Z,29.17
2023-02-11T16:14:04.634Z,39.93
2023-02-11T16:16:36.347Z,7.87
2023-02-11T16:19:06.537Z,8.80
2023-02-11T16:21:38.935Z,7.90
2023-02-11T16:24:17.064Z,5.00
2023-02-11T16:26:50.049Z,6.20
2023-02-11T16:29:20.230Z,5.30
2023-02-11T16:31:50.397Z,6.33
2023-02-11T16:34:20.157Z,8.07
2023-02-11T16:36:48.450Z,5.77
2023-02-11T16:39:18.809Z,8.13
2023-02-11T16:41:46.805Z,7.23
2023-02-11T16:44:14.809Z,36.60
2023-02-11T16:46:42.850Z,7.97
2023-02-11T16:49:15.951Z,5.90
2023-02-11T16:51:44.296Z,6.57
2023-02-11T16:54:16.129Z,7.40
2023-02-11T16:56:45.799Z,5.97
2023-02-11T16:59:13.950Z,6.30
2023-02-11T17:01:43.093Z,4.83
2023-02-11T17:04:15.884Z,3.90
2023-02-11T17:06:43.811Z,4.87
2023-02-11T17:09:18.436Z,4.20
2023-02-11T17:11:47.697Z,3.47
2023-02-11T17:14:15.634Z,6.73
2023-02-11T17:16:45.181Z,4.90
2023-02-11T17:19:15.907Z,6.97
2023-02-11T17:21:44.038Z,6.70
2023-02-11T17:24:12.136Z,4.47
2023-02-11T17:26:40.314Z,4.93
2023-02-11T17:29:11.473Z,6.43
2023-02-11T17:31:40.399Z,4.37
2023-02-11T17:34:08.813Z,4.67
2023-02-11T17:36:36.821Z,6.23
2023-02-11T17:39:08.220Z,14.03
2023-02-11T17:41:37.404Z,10.43
2023-02-11T17:44:06.436Z,5.00
2023-02-11T17:46:36.830Z,5.07
2023-02-11T17:49:05.468Z,6.13
2023-02-11T17:51:35.191Z,5.93
2023-02-11T17:54:05.010Z,4.57
2023-02-11T17:56:33.872Z,4.40
2023-02-11T17:59:02.376Z,4.57
2023-02-11T18:01:31.946Z,7.40
2023-02-11T18:04:01.308Z,5.47
2023-02-11T18:06:29.649Z,5.80
2023-02-11T18:08:59.804Z,5.67
2023-02-11T18:11:28.280Z,5.40
2023-02-11T18:13:56.256Z,5.67
2023-02-11T18:16:28.609Z,6.20
2023-02-11T18:18:57.379Z,5.53
2023-02-11T18:21:27.005Z,4.57
2023-02-11T18:23:56.856Z,5.67
2023-02-11T18:26:27.952Z,5.00
2023-02-11T18:28:57.621Z,6.47
2023-02-11T18:31:26.373Z,4.50
2023-02-11T18:33:54.818Z,6.63
2023-02-11T18:36:24.017Z,5.87
2023-02-11T18:38:54.218Z,4.17
2023-02-11T18:41:22.325Z,4.20
2023-02-11T18:43:50.350Z,5.07
2023-02-11T18:46:18.718Z,4.47
2023-02-11T18:48:46.771Z,4.60
2023-02-11T18:51:18.276Z,4.27
2023-02-11T18:53:46.657Z,4.30
2023-02-11T18:56:17.787Z,5.10
2023-02-11T18:58:45.783Z,4.90
2023-02-11T19:01:15.578Z,6.17
2023-02-11T19:03:43.912Z,5.53
2023-02-11T19:06:16.896Z,7.60
2023-02-11T19:08:44.985Z,7.50
2023-02-11T19:11:16.122Z,4.70
2023-02-11T19:13:44.107Z,4.60
2023-02-11T19:16:14.780Z,4.27
2023-02-11T19:18:42.739Z,4.07
2023-02-11T19:21:12.392Z,4.23
2023-02-11T19:23:40.598Z,4.87
2023-02-11T19:26:08.524Z,3.97
2023-02-11T19:28:38.009Z,4.00
2023-02-11T19:31:10.030Z,3.37
2023-02-11T19:33:38.108Z,3.97
2023-02-11T19:36:07.624Z,4.20
2023-02-11T19:38:35.795Z,4.30
2023-02-11T19:41:03.891Z,4.30
2023-02-11T19:43:31.926Z,4.40
2023-02-11T19:46:02.478Z,4.53
2023-02-11T19:48:30.457Z,6.90
2023-02-11T19:50:58.760Z,5.67
2023-02-11T19:53:26.798Z,4.43
2023-02-11T19:55:54.718Z,4.67
2023-02-11T19:58:22.631Z,4.60
2023-02-11T20:00:50.519Z,4.63
2023-02-11T20:03:19.833Z,5.00
2023-02-11T20:05:47.969Z,5.77
2023-02-11T20:08:17.056Z,4.27
2023-02-11T20:10:45.062Z,4.53
2023-02-11T20:13:13.094Z,5.60
2023-02-11T20:15:41.089Z,4.10
2023-02-11T20:18:09.115Z,6.13
2023-02-11T20:20:39.250Z,6.17
2023-02-11T20:23:07.193Z,6.80
2023-02-11T20:25:35.122Z,5.23
2023-02-11T20:28:03.057Z,4.50
2023-02-11T20:30:30.967Z,5.43
2023-02-11T20:32:58.942Z,8.90
2023-02-11T20:35:26.892Z,4.70
2023-02-11T20:37:56.176Z,3.80
2023-02-11T20:40:24.051Z,4.80
2023-02-11T20:42:52.778Z,5.13
2023-02-11T20:45:20.725Z,4.60
2023-02-11T20:47:48.734Z,4.23
2023-02-11T20:50:16.653Z,7.10
2023-02-11T20:52:44.604Z,4.10
2023-02-11T20:55:13.997Z,4.20
2023-02-11T20:57:42.393Z,14.07
2023-02-11T21:00:13.092Z,6.10
2023-02-11T21:02:42.349Z,6.50
2023-02-11T21:05:11.479Z,4.47
2023-02-11T21:07:39.526Z,4.33
2023-02-11T21:10:08.796Z,5.27
2023-02-11T21:12:38.187Z,17.73
2023-02-11T21:15:07.522Z,17.60
2023-02-11T21:17:35.392Z,5.07
2023-02-11T21:20:03.353Z,4.63
2023-02-11T21:22:31.359Z,5.63
2023-02-11T21:25:01.030Z,10.70
2023-02-11T21:27:32.174Z,5.50
2023-02-11T21:30:02.249Z,5.33
2023-02-11T21:32:30.254Z,6.80
2023-02-11T21:35:00.550Z,5.30
2023-02-11T21:37:29.799Z,6.37
2023-02-11T21:39:57.804Z,4.97
2023-02-11T21:42:25.800Z,6.07
2023-02-11T21:44:53.854Z,4.03
2023-02-11T21:47:23.218Z,5.87
2023-02-11T21:49:51.134Z,32.47
2023-02-11T21:52:19.283Z,7.93
2023-02-11T21:54:50.054Z,3.83
2023-02-11T21:57:18.080Z,3.70
2023-02-11T21:59:46.055Z,5.07
2023-02-11T22:02:13.957Z,5.67
2023-02-11T22:04:43.322Z,6.77
2023-02-11T22:07:12.605Z,8.97
2023-02-11T22:09:41.169Z,7.83
2023-02-11T22:12:09.562Z,3.03
2023-02-11T22:14:37.540Z,4.00
2023-02-11T22:17:05.772Z,5.30
2023-02-11T22:19:34.197Z,4.77
2023-02-11T22:22:03.474Z,5.27
2023-02-11T22:24:31.480Z,4.87
2023-02-11T22:26:59.364Z,7.07
2023-02-11T22:29:27.389Z,8.77
2023-02-11T22:31:55.319Z,7.50
2023-02-11T22:34:23.292Z,7.20
2023-02-11T22:36:51.198Z,5.60
2023-02-11T22:39:20.515Z,6.73
2023-02-11T22:41:49.030Z,2.93
2023-02-11T22:44:17.805Z,5.93
2023-02-11T22:46:45.730Z,5.63
2023-02-11T22:49:16.301Z,11.60
2023-02-11T22:51:44.630Z,8.50
2023-02-11T22:54:15.275Z,6.97
2023-02-11T22:56:45.628Z,4.70
2023-02-11T22:59:15.556Z,6.27
2023-02-11T23:01:44.143Z,6.37
2023-02-11T23:04:14.405Z,5.60
2023-02-11T23:06:42.293Z,8.17
2023-02-11T23:09:13.173Z,6.13
2023-02-11T23:11:41.460Z,8.67
2023-02-11T23:14:12.132Z,7.37
2023-02-11T23:16:40.389Z,7.50
2023-02-11T23:19:09.939Z,5.40
2023-02-11T23:21:39.591Z,8.80
2023-02-11T23:24:09.711Z,8.97
2023-02-11T23:26:39.633Z,6.63
2023-02-11T23:29:07.544Z,8.97
2023-02-11T23:31:39.663Z,4.73
2023-02-11T23:34:08.756Z,6.93
2023-02-11T23:36:37.263Z,3.97
2023-02-11T23:39:05.583Z,8.90
2023-02-11T23:41:33.528Z,12.73
2023-02-11T23:44:01.413Z,5.70
2023-02-11T23:46:29.649Z,7.67
2023-02-11T23:48:58.948Z,11.90
2023-02-11T23:51:26.871Z,10.87
2023-02-11T23:53:56.117Z,10.80
2023-02-11T23:56:26.214Z,8.00
2023-02-11T23:58:55.687Z,6.70
